LTAF/ADA METAR and TAF weather

Enter ICAO airport designator
Station Type Date Time Source
LTAF METAR 2022/06/30 00:20 UTC NOAA

LTAF 300020Z 14002KT 9999 SCT035 24/22 Q1005 NOSIG


Station Type Date Time Source
LTAF Decoded METAR 2022/06/30 00:20 UTC NOAA

Adana / Sakirpasa, Turkey (LTAF) 36-59N 035-18E 20M
Jun 29, 2022 - 08:20 PM EDT / 2022.06.30 0020 UTC
Wind: from the SE (140 degrees) at 2 MPH (2 KT):0
Visibility: greater than 7 mile(s):0
Sky conditions: partly cloudy
Temperature: 75 F (24 C)
Dew Point: 71 F (22 C)
Relative Humidity: 88%
Pressure (altimeter): 29.68 in. Hg (1005 hPa)
ob: LTAF 300020Z 14002KT 9999 SCT035 24/22 Q1005 NOSIG
cycle: 0

Station Type Date Time Source
LTAF TAF 2022/06/29 18:02 UTC NOAA

TAF LTAF 291640Z 2918/3018 VRB02KT 9999 SCT035
BECMG 3009/3011 21012KT
BECMG 3015/3017 VRB02KT

Example: see airport list